createdAt,value
2018-02-03T00:01:12.428Z,83.90
2018-02-03T00:03:39.328Z,83.70
2018-02-03T00:06:06.171Z,83.80
2018-02-03T00:08:33.024Z,83.20
2018-02-03T00:11:00.449Z,81.90
2018-02-03T00:13:27.284Z,81.90
2018-02-03T00:15:54.125Z,81.60
2018-02-03T00:18:20.976Z,81.40
2018-02-03T00:20:47.832Z,81.60
2018-02-03T00:23:14.745Z,81.70
2018-02-03T00:25:41.699Z,81.80
2018-02-03T00:28:08.651Z,82.00
2018-02-03T00:30:35.599Z,81.60
2018-02-03T00:33:02.556Z,81.50
2018-02-03T00:35:29.413Z,81.20
2018-02-03T00:37:56.320Z,81.40
2018-02-03T00:40:23.226Z,81.00
2018-02-03T00:42:50.084Z,81.20
2018-02-03T00:45:17.392Z,82.00
2018-02-03T00:47:44.220Z,82.00
2018-02-03T00:50:11.155Z,81.90
2018-02-03T00:52:37.999Z,81.40
2018-02-03T00:55:04.947Z,81.40
2018-02-03T00:57:31.896Z,81.30
2018-02-03T00:59:58.843Z,81.60
2018-02-03T01:02:25.691Z,82.10
2018-02-03T01:04:52.633Z,82.20
2018-02-03T01:07:19.472Z,82.20
2018-02-03T01:09:46.423Z,82.20
2018-02-03T01:12:13.262Z,81.80
2018-02-03T01:14:40.116Z,81.90
2018-02-03T01:17:06.983Z,81.70
2018-02-03T01:19:33.820Z,81.90
2018-02-03T01:22:00.748Z,81.90
2018-02-03T01:24:27.596Z,82.00
2018-02-03T01:26:54.531Z,81.70
2018-02-03T01:29:21.400Z,81.70
2018-02-03T01:31:48.240Z,81.40
2018-02-03T01:34:15.080Z,81.60
2018-02-03T01:36:42.016Z,81.80
2018-02-03T01:39:08.872Z,82.20
2018-02-03T01:41:35.810Z,81.90
2018-02-03T01:44:02.659Z,82.30
2018-02-03T01:46:29.497Z,82.30
2018-02-03T01:48:56.436Z,82.70
2018-02-03T01:51:23.383Z,82.80
2018-02-03T01:53:50.240Z,82.50
2018-02-03T01:56:17.084Z,83.00
2018-02-03T01:58:43.943Z,83.50
2018-02-03T02:01:10.876Z,83.60
2018-02-03T02:03:37.816Z,84.20
2018-02-03T02:06:04.657Z,85.00
2018-02-03T02:08:31.495Z,85.30
2018-02-03T02:10:58.352Z,85.70
2018-02-03T02:13:25.302Z,86.00
2018-02-03T02:15:52.235Z,86.10
2018-02-03T02:18:19.190Z,85.60
2018-02-03T02:20:46.024Z,85.50
2018-02-03T02:23:12.867Z,85.30
2018-02-03T02:25:39.731Z,85.20
2018-02-03T02:28:06.664Z,85.50
2018-02-03T02:30:33.608Z,85.60
2018-02-03T02:33:00.548Z,85.70
2018-02-03T02:35:27.390Z,85.30
2018-02-03T02:37:54.253Z,85.10
2018-02-03T02:40:21.184Z,84.40
2018-02-03T02:42:48.041Z,84.20
2018-02-03T02:45:14.892Z,84.20
2018-02-03T02:47:41.824Z,83.50
2018-02-03T02:50:08.772Z,83.50
2018-02-03T02:52:35.711Z,84.00
2018-02-03T02:55:02.578Z,84.60
2018-02-03T02:57:29.508Z,85.20
2018-02-03T02:59:56.346Z,85.80
2018-02-03T03:02:23.296Z,85.70
2018-02-03T03:04:50.263Z,85.50
2018-02-03T03:07:17.188Z,85.70
2018-02-03T03:09:44.136Z,85.60
2018-02-03T03:12:10.967Z,85.30
2018-02-03T03:14:37.923Z,85.10
2018-02-03T03:17:04.871Z,84.30
2018-02-03T03:19:31.717Z,84.40
2018-02-03T03:21:58.659Z,83.90
2018-02-03T03:24:25.611Z,83.80
2018-02-03T03:26:52.555Z,83.40
2018-02-03T03:29:19.499Z,83.20
2018-02-03T03:31:46.360Z,83.10
2018-02-03T03:34:13.203Z,83.10
2018-02-03T03:36:40.044Z,83.10
2018-02-03T03:39:06.947Z,82.80
2018-02-03T03:41:34.206Z,84.90
2018-02-03T03:44:01.488Z,85.40
2018-02-03T03:46:28.439Z,85.40
2018-02-03T03:48:55.379Z,85.70
2018-02-03T03:51:22.332Z,86.10
2018-02-03T03:53:49.271Z,86.10
2018-02-03T03:56:16.114Z,85.90
2018-02-03T03:58:43.059Z,85.70
2018-02-03T04:01:10.012Z,85.50
2018-02-03T04:03:36.864Z,85.10
2018-02-03T04:06:03.799Z,85.50
2018-02-03T04:08:30.661Z,85.60
2018-02-03T04:10:57.596Z,85.10
2018-02-03T04:13:24.484Z,84.60
2018-02-03T04:15:51.328Z,84.50
2018-02-03T04:18:18.179Z,84.00
2018-02-03T04:20:45.068Z,83.90
2018-02-03T04:23:11.913Z,83.60
2018-02-03T04:25:38.872Z,83.30
2018-02-03T04:28:05.811Z,83.00
2018-02-03T04:30:32.769Z,83.00
2018-02-03T04:32:59.700Z,83.10
2018-02-03T04:35:26.652Z,82.90
2018-02-03T04:37:53.492Z,82.80
2018-02-03T04:40:20.344Z,82.60
2018-02-03T04:42:47.268Z,82.40
2018-02-03T04:45:14.231Z,82.40
2018-02-03T04:47:41.196Z,82.20
2018-02-03T04:50:08.229Z,82.10
2018-02-03T04:52:35.077Z,82.10
2018-02-03T04:55:01.916Z,82.00
2018-02-03T04:57:28.789Z,83.00
2018-02-03T04:59:55.626Z,84.20
2018-02-03T05:02:22.548Z,85.10
2018-02-03T05:04:49.389Z,85.20
2018-02-03T05:07:16.236Z,85.10
2018-02-03T05:09:43.179Z,84.90
2018-02-03T05:12:10.022Z,84.30
2018-02-03T05:14:36.893Z,84.40
2018-02-03T05:17:03.815Z,84.20
2018-02-03T05:19:30.668Z,84.30
2018-02-03T05:21:57.658Z,84.80
2018-02-03T05:24:24.655Z,85.10
2018-02-03T05:26:51.597Z,85.30
2018-02-03T05:29:18.548Z,85.40
2018-02-03T05:31:45.404Z,85.60
2018-02-03T05:34:12.357Z,85.90
2018-02-03T05:36:39.292Z,85.80
2018-02-03T05:39:06.132Z,85.60
2018-02-03T05:41:33.080Z,86.10
2018-02-03T05:43:59.933Z,86.60
2018-02-03T05:46:26.774Z,86.30
2018-02-03T05:48:53.712Z,86.30
2018-02-03T05:51:20.550Z,86.70
2018-02-03T05:53:47.400Z,86.80
2018-02-03T05:56:14.340Z,87.00
2018-02-03T05:58:41.201Z,86.20
2018-02-03T06:01:08.143Z,85.90
2018-02-03T06:03:35.090Z,85.60
2018-02-03T06:06:01.931Z,85.50
2018-02-03T06:08:28.878Z,84.90
2018-02-03T06:10:55.822Z,84.90
2018-02-03T06:13:22.867Z,84.40
2018-02-03T06:15:49.713Z,84.20
2018-02-03T06:18:16.558Z,83.90
2018-02-03T06:20:43.416Z,83.80
2018-02-03T06:23:10.351Z,82.80
2018-02-03T06:25:37.293Z,82.80
2018-02-03T06:28:04.161Z,83.00
2018-02-03T06:30:31.083Z,83.30
2018-02-03T06:32:57.924Z,83.60
2018-02-03T06:35:24.871Z,83.60
2018-02-03T06:37:51.723Z,83.70
2018-02-03T06:40:18.664Z,83.90
2018-02-03T06:42:45.504Z,83.90
2018-02-03T06:45:12.377Z,84.10
2018-02-03T06:47:39.300Z,84.10
2018-02-03T06:50:06.232Z,83.90
2018-02-03T06:52:33.096Z,83.90
2018-02-03T06:54:59.936Z,83.80
2018-02-03T06:57:26.884Z,82.00
2018-02-03T06:59:53.831Z,82.30
2018-02-03T07:02:20.680Z,82.70
2018-02-03T07:04:47.529Z,81.80
2018-02-03T07:07:14.384Z,82.60
2018-02-03T07:09:41.228Z,83.30
2018-02-03T07:12:08.090Z,83.40
2018-02-03T07:14:34.941Z,83.70
2018-02-03T07:17:01.845Z,83.80
2018-02-03T07:19:28.707Z,83.50
2018-02-03T07:21:55.637Z,83.10
2018-02-03T07:24:22.572Z,83.30
2018-02-03T07:26:49.617Z,82.50
2018-02-03T07:29:16.434Z,82.40
2018-02-03T07:31:43.719Z,81.20
2018-02-03T07:34:10.625Z,81.20
2018-02-03T07:36:37.511Z,80.40
2018-02-03T07:39:04.457Z,81.30
2018-02-03T07:41:31.306Z,81.50
2018-02-03T07:43:58.148Z,79.90
2018-02-03T07:46:25.088Z,80.20
2018-02-03T07:48:51.936Z,79.80
2018-02-03T07:51:18.884Z,80.00
2018-02-03T07:53:45.925Z,79.90
2018-02-03T07:56:12.771Z,79.60
2018-02-03T07:58:39.752Z,79.00
2018-02-03T08:01:06.596Z,78.70
2018-02-03T08:03:33.543Z,78.40
2018-02-03T08:06:00.455Z,79.00
2018-02-03T08:08:27.403Z,79.10
2018-02-03T08:10:54.347Z,79.40
2018-02-03T08:13:21.200Z,79.20
2018-02-03T08:15:48.136Z,78.90
2018-02-03T08:18:14.947Z,79.00
2018-02-03T08:20:41.792Z,79.30
2018-02-03T08:23:09.054Z,78.90
2018-02-03T08:25:36.301Z,78.80
2018-02-03T08:28:03.591Z,78.60
2018-02-03T08:30:30.532Z,78.60
2018-02-03T08:32:57.372Z,78.60
2018-02-03T08:35:24.259Z,78.70
2018-02-03T08:37:51.313Z,78.30
2018-02-03T08:40:18.488Z,76.00
2018-02-03T08:42:45.780Z,75.50
2018-02-03T08:45:12.931Z,75.50
2018-02-03T08:47:39.814Z,76.00
2018-02-03T08:50:06.717Z,77.30
2018-02-03T08:52:33.666Z,76.40
2018-02-03T08:55:00.511Z,76.90
2018-02-03T08:57:27.361Z,76.90
2018-02-03T08:59:54.196Z,76.10
2018-02-03T09:02:21.148Z,75.00
2018-02-03T09:04:47.991Z,73.50
2018-02-03T09:07:14.870Z,73.70
2018-02-03T09:09:41.775Z,75.00
2018-02-03T09:12:08.616Z,75.20
2018-02-03T09:14:35.486Z,75.00
2018-02-03T09:17:02.320Z,73.50
2018-02-03T09:19:29.260Z,74.70
2018-02-03T09:21:56.098Z,74.90
2018-02-03T09:24:22.955Z,73.40
2018-02-03T09:26:49.788Z,74.70
2018-02-03T09:29:16.644Z,73.70
2018-02-03T09:31:43.484Z,74.10
2018-02-03T09:34:10.426Z,74.10
2018-02-03T09:36:37.352Z,72.40
2018-02-03T09:39:04.221Z,71.70
2018-02-03T09:41:31.169Z,71.20
2018-02-03T09:43:58.108Z,71.10
2018-02-03T09:46:25.053Z,70.20
2018-02-03T09:48:51.908Z,70.40
2018-02-03T09:51:18.748Z,70.50
2018-02-03T09:53:45.591Z,69.50
2018-02-03T09:56:12.460Z,68.70
2018-02-03T09:58:39.680Z,68.60
2018-02-03T10:01:06.525Z,69.10
2018-02-03T10:03:33.475Z,70.00
2018-02-03T10:06:00.345Z,70.60
2018-02-03T10:08:27.390Z,70.80
2018-02-03T10:10:54.323Z,70.50
2018-02-03T10:13:21.264Z,70.80
2018-02-03T10:15:48.119Z,70.90
2018-02-03T10:18:15.390Z,70.40
2018-02-03T10:20:42.231Z,71.10
2018-02-03T10:23:09.248Z,71.30
2018-02-03T10:25:36.101Z,70.60
2018-02-03T10:28:02.960Z,70.70
2018-02-03T10:30:29.795Z,70.80
2018-02-03T10:32:56.696Z,69.80
2018-02-03T10:35:23.988Z,69.90
2018-02-03T10:37:50.827Z,69.90
2018-02-03T10:40:17.771Z,70.10
2018-02-03T10:42:44.615Z,69.90
2018-02-03T10:45:11.721Z,69.50
2018-02-03T10:47:38.551Z,69.40
2018-02-03T10:50:05.460Z,70.30
2018-02-03T10:52:32.411Z,69.20
2018-02-03T10:54:59.262Z,69.00
2018-02-03T10:57:26.192Z,70.10
2018-02-03T10:59:53.147Z,68.80
2018-02-03T11:02:19.983Z,69.30
2018-02-03T11:04:47.031Z,69.30
2018-02-03T11:07:13.861Z,68.60
2018-02-03T11:09:40.700Z,68.20
2018-02-03T11:12:07.576Z,68.80
2018-02-03T11:14:34.418Z,68.60
2018-02-03T11:17:01.272Z,68.70
2018-02-03T11:19:28.308Z,68.50
2018-02-03T11:21:55.147Z,68.30
2018-02-03T11:24:22.092Z,68.30
2018-02-03T11:26:48.960Z,68.90
2018-02-03T11:29:15.890Z,67.90
2018-02-03T11:31:42.721Z,67.40
2018-02-03T11:34:09.580Z,67.90
2018-02-03T11:36:36.621Z,67.80
2018-02-03T11:39:03.443Z,67.70
2018-02-03T11:41:30.285Z,68.30
2018-02-03T11:43:57.150Z,66.90
2018-02-03T11:46:24.002Z,66.80
2018-02-03T11:48:50.943Z,66.50
2018-02-03T11:51:17.812Z,66.90
2018-02-03T11:53:45.122Z,68.60
2018-02-03T11:56:11.952Z,68.50
2018-02-03T11:58:39.200Z,67.10
2018-02-03T12:01:06.492Z,66.70
2018-02-03T12:03:33.336Z,66.70
2018-02-03T12:06:00.185Z,66.60
2018-02-03T12:08:27.037Z,66.30
2018-02-03T12:10:53.899Z,66.10
2018-02-03T12:13:20.744Z,66.60
2018-02-03T12:15:51.968Z,65.30
2018-02-03T12:18:19.020Z,66.70
2018-02-03T12:20:45.960Z,66.60
2018-02-03T12:23:12.809Z,66.50
2018-02-03T12:25:40.683Z,66.30
2018-02-03T12:28:07.621Z,64.90
2018-02-03T12:30:34.559Z,64.40
2018-02-03T12:33:01.406Z,66.00
2018-02-03T12:35:28.340Z,65.90
2018-02-03T12:37:55.215Z,66.30
2018-02-03T12:40:22.144Z,67.10
2018-02-03T12:42:48.988Z,67.90
2018-02-03T12:45:15.825Z,67.20
2018-02-03T12:47:42.672Z,66.40
2018-02-03T12:50:09.512Z,65.90
2018-02-03T12:52:36.361Z,66.30
2018-02-03T12:55:03.312Z,66.90
2018-02-03T12:57:30.164Z,66.50
2018-02-03T12:59:56.996Z,66.40
2018-02-03T13:02:23.955Z,66.70
2018-02-03T13:04:50.895Z,67.50
2018-02-03T13:07:17.724Z,68.10
2018-02-03T13:09:44.587Z,68.40
2018-02-03T13:12:11.932Z,68.30
2018-02-03T13:14:38.787Z,69.20
2018-02-03T13:17:05.632Z,69.10
2018-02-03T13:19:32.594Z,68.60
2018-02-03T13:21:59.516Z,67.80
2018-02-03T13:24:26.392Z,67.20
2018-02-03T13:26:53.620Z,67.40
2018-02-03T13:29:20.663Z,69.20
2018-02-03T13:31:47.494Z,69.90
2018-02-03T13:34:14.454Z,69.70
2018-02-03T13:36:41.305Z,69.90
2018-02-03T13:39:08.248Z,70.10
2018-02-03T13:41:35.195Z,69.90
2018-02-03T13:44:02.544Z,69.20
2018-02-03T13:46:29.396Z,68.60
2018-02-03T13:48:56.276Z,68.60
2018-02-03T13:51:23.184Z,69.20
2018-02-03T13:53:50.128Z,68.80
2018-02-03T13:56:16.993Z,68.80
2018-02-03T13:58:43.843Z,69.30
2018-02-03T14:01:10.696Z,68.60
2018-02-03T14:03:37.612Z,68.30
2018-02-03T14:06:04.820Z,67.20
2018-02-03T14:08:31.602Z,66.90
2018-02-03T14:10:58.448Z,66.50
2018-02-03T14:13:26.315Z,67.50
2018-02-03T14:15:53.274Z,67.80
2018-02-03T14:18:20.212Z,67.50
2018-02-03T14:20:47.046Z,67.30
2018-02-03T14:23:13.996Z,66.80
2018-02-03T14:25:40.838Z,67.80
2018-02-03T14:28:07.821Z,68.90
2018-02-03T14:30:34.683Z,69.40
2018-02-03T14:33:01.531Z,68.90
2018-02-03T14:35:28.405Z,68.70
2018-02-03T14:37:55.623Z,68.50
2018-02-03T14:40:22.624Z,68.50
2018-02-03T14:42:49.439Z,69.30
2018-02-03T14:45:16.727Z,69.10
2018-02-03T14:47:43.577Z,69.10
2018-02-03T14:50:10.427Z,68.60
2018-02-03T14:52:37.259Z,67.50
2018-02-03T14:55:04.125Z,67.70
2018-02-03T14:57:31.044Z,67.60
2018-02-03T14:59:57.880Z,68.10
2018-02-03T15:02:24.832Z,69.00
2018-02-03T15:04:51.672Z,67.80
2018-02-03T15:07:18.624Z,68.20
2018-02-03T15:09:45.477Z,68.50
2018-02-03T15:12:12.329Z,68.60
2018-02-03T15:14:39.264Z,68.80
2018-02-03T15:17:06.116Z,69.00
2018-02-03T15:19:33.056Z,68.90
2018-02-03T15:21:59.992Z,69.00
2018-02-03T15:24:26.852Z,69.20
2018-02-03T15:26:53.801Z,69.20
2018-02-03T15:29:20.743Z,69.00
2018-02-03T15:31:47.590Z,68.40
2018-02-03T15:34:14.435Z,69.30
2018-02-03T15:36:41.312Z,69.80
2018-02-03T15:39:08.204Z,70.50
2018-02-03T15:41:35.157Z,70.70
2018-02-03T15:44:02.013Z,71.30
2018-02-03T15:46:28.888Z,72.00
2018-02-03T15:48:55.791Z,72.80
2018-02-03T15:51:22.641Z,74.00
2018-02-03T15:53:49.501Z,74.30
2018-02-03T15:56:16.432Z,74.20
2018-02-03T15:58:43.448Z,74.40
2018-02-03T16:01:10.680Z,75.40
2018-02-03T16:03:37.989Z,75.70
2018-02-03T16:06:04.866Z,75.70
2018-02-03T16:08:31.780Z,76.10
2018-02-03T16:10:58.647Z,75.80
2018-02-03T16:13:25.572Z,75.70
2018-02-03T16:15:52.617Z,75.60
2018-02-03T16:18:19.565Z,75.40
2018-02-03T16:20:46.413Z,75.40
2018-02-03T16:23:13.268Z,75.20
2018-02-03T16:25:40.206Z,74.90
2018-02-03T16:28:07.042Z,75.00
2018-02-03T16:30:33.936Z,74.70
2018-02-03T16:33:01.459Z,74.10
2018-02-03T16:35:28.375Z,74.10
2018-02-03T16:37:55.216Z,74.50
2018-02-03T16:40:22.076Z,74.80
2018-02-03T16:42:49.032Z,74.90
2018-02-03T16:45:15.883Z,74.90
2018-02-03T16:47:42.744Z,74.80
2018-02-03T16:50:09.660Z,75.20
2018-02-03T16:52:36.500Z,74.90
2018-02-03T16:55:03.448Z,74.30
2018-02-03T16:57:30.284Z,74.70
2018-02-03T16:59:57.256Z,74.60
2018-02-03T17:02:24.192Z,74.70
2018-02-03T17:04:51.136Z,74.90
2018-02-03T17:07:18.188Z,75.20
2018-02-03T17:09:45.025Z,75.50
2018-02-03T17:12:11.971Z,75.70
2018-02-03T17:14:38.918Z,75.50
2018-02-03T17:17:05.812Z,75.20
2018-02-03T17:19:32.643Z,75.10
2018-02-03T17:21:59.556Z,74.80
2018-02-03T17:24:26.502Z,74.70
2018-02-03T17:26:53.365Z,74.80
2018-02-03T17:29:20.296Z,74.50
2018-02-03T17:31:47.244Z,74.30
2018-02-03T17:34:14.182Z,74.70
2018-02-03T17:36:41.031Z,74.90
2018-02-03T17:39:07.879Z,75.60
2018-02-03T17:41:35.232Z,75.60
2018-02-03T17:44:02.086Z,75.70
2018-02-03T17:46:28.927Z,75.70
2018-02-03T17:48:55.768Z,75.80
2018-02-03T17:51:22.616Z,75.60
2018-02-03T17:53:49.552Z,75.50
2018-02-03T17:56:16.389Z,74.40
2018-02-03T17:58:43.262Z,73.90
2018-02-03T18:01:10.095Z,74.70
2018-02-03T18:03:37.050Z,75.40
2018-02-03T18:06:03.923Z,75.40
2018-02-03T18:08:30.768Z,75.30
2018-02-03T18:10:57.713Z,75.40
2018-02-03T18:13:24.560Z,74.40
2018-02-03T18:15:51.396Z,74.00
2018-02-03T18:18:18.860Z,74.30
2018-02-03T18:20:45.753Z,74.30
2018-02-03T18:23:12.599Z,74.10
2018-02-03T18:25:39.440Z,73.50
2018-02-03T18:28:06.388Z,74.00
2018-02-03T18:30:33.232Z,74.20
2018-02-03T18:33:00.091Z,74.00
2018-02-03T18:35:26.940Z,74.40
2018-02-03T18:37:53.792Z,74.20
2018-02-03T18:40:20.730Z,74.60
2018-02-03T18:42:47.565Z,74.70
2018-02-03T18:45:26.396Z,74.90
2018-02-03T18:47:55.036Z,75.60
2018-02-03T18:50:22.272Z,76.10
2018-02-03T18:52:49.124Z,76.10
2018-02-03T18:55:16.394Z,76.10
2018-02-03T18:57:43.680Z,76.20
2018-02-03T19:00:10.628Z,76.20
2018-02-03T19:02:37.568Z,76.30
2018-02-03T19:05:04.412Z,76.50
2018-02-03T19:07:31.270Z,76.80
2018-02-03T19:09:58.120Z,77.40
2018-02-03T19:12:25.054Z,77.80
2018-02-03T19:14:51.892Z,77.70
2018-02-03T19:17:18.835Z,77.90
2018-02-03T19:19:45.688Z,78.00
2018-02-03T19:22:12.547Z,77.80
2018-02-03T19:24:39.480Z,77.70
2018-02-03T19:27:06.317Z,76.90
2018-02-03T19:29:33.577Z,76.80
2018-02-03T19:32:00.419Z,77.30
2018-02-03T19:34:27.363Z,77.70
2018-02-03T19:36:54.308Z,78.90
2018-02-03T19:39:21.256Z,79.20
2018-02-03T19:41:48.208Z,78.70
2018-02-03T19:44:15.151Z,79.10
2018-02-03T19:46:42.005Z,79.30
2018-02-03T19:49:08.944Z,79.70
2018-02-03T19:51:35.988Z,79.50
2018-02-03T19:54:02.824Z,79.40
2018-02-03T19:56:29.668Z,79.70
2018-02-03T19:58:56.571Z,79.80
2018-02-03T20:01:23.875Z,78.90
2018-02-03T20:03:50.824Z,78.90
2018-02-03T20:06:17.675Z,78.80
2018-02-03T20:08:44.523Z,79.80
2018-02-03T20:11:11.375Z,80.40
2018-02-03T20:13:38.216Z,80.00
2018-02-03T20:16:05.082Z,80.20
2018-02-03T20:18:31.920Z,80.20
2018-02-03T20:20:58.854Z,80.40
2018-02-03T20:23:25.694Z,79.90
2018-02-03T20:25:52.548Z,79.90
2018-02-03T20:28:19.470Z,79.90
2018-02-03T20:30:46.419Z,80.40
2018-02-03T20:33:13.255Z,80.40
2018-02-03T20:35:40.115Z,80.50
2018-02-03T20:38:07.056Z,80.20
2018-02-03T20:40:33.989Z,80.60
2018-02-03T20:43:00.848Z,80.70
2018-02-03T20:45:27.892Z,80.80
2018-02-03T20:47:54.835Z,80.80
2018-02-03T20:50:21.743Z,80.90
2018-02-03T20:52:49.644Z,80.10
2018-02-03T20:55:16.609Z,80.10
2018-02-03T20:57:43.577Z,80.20
2018-02-03T21:00:10.492Z,80.20
2018-02-03T21:02:37.328Z,80.40
2018-02-03T21:05:04.434Z,80.20
2018-02-03T21:07:31.278Z,80.70
2018-02-03T21:09:58.171Z,81.00
2018-02-03T21:12:25.115Z,81.10
2018-02-03T21:14:52.080Z,80.90
2018-02-03T21:17:19.016Z,80.50
2018-02-03T21:19:46.056Z,80.30
2018-02-03T21:22:12.916Z,80.50
2018-02-03T21:24:39.866Z,80.70
2018-02-03T21:27:07.265Z,79.60
2018-02-03T21:29:34.510Z,79.40
2018-02-03T21:32:01.820Z,79.50
2018-02-03T21:34:28.800Z,79.60
2018-02-03T21:36:55.661Z,80.40
2018-02-03T21:39:22.500Z,80.50
2018-02-03T21:41:49.755Z,81.20
2018-02-03T21:44:17.001Z,81.00
2018-02-03T21:46:43.923Z,81.00
2018-02-03T21:49:10.771Z,80.80
2018-02-03T21:51:37.640Z,80.10
2018-02-03T21:54:04.536Z,80.40
2018-02-03T21:56:31.378Z,80.50
2018-02-03T21:58:58.229Z,80.20
2018-02-03T22:01:25.075Z,80.20
2018-02-03T22:03:52.024Z,80.90
2018-02-03T22:06:18.855Z,81.00
2018-02-03T22:08:45.814Z,80.20
2018-02-03T22:11:12.656Z,80.10
2018-02-03T22:13:39.699Z,80.30
2018-02-03T22:16:06.543Z,80.80
2018-02-03T22:18:33.492Z,81.20
2018-02-03T22:21:00.351Z,81.00
2018-02-03T22:23:27.232Z,81.10
2018-02-03T22:25:54.123Z,81.00
2018-02-03T22:28:21.072Z,80.40
2018-02-03T22:30:47.935Z,80.30
2018-02-03T22:33:14.806Z,80.20
2018-02-03T22:35:41.711Z,80.40
2018-02-03T22:38:08.647Z,80.50
2018-02-03T22:40:35.494Z,80.90
2018-02-03T22:43:02.445Z,81.20
2018-02-03T22:45:29.391Z,81.40
2018-02-03T22:47:56.241Z,81.40
2018-02-03T22:50:23.098Z,81.30
2018-02-03T22:52:50.019Z,81.00
2018-02-03T22:55:16.871Z,81.20
2018-02-03T22:57:43.736Z,81.10
2018-02-03T23:00:10.593Z,81.40
2018-02-03T23:02:37.516Z,81.70
2018-02-03T23:05:04.766Z,81.60
2018-02-03T23:07:31.711Z,81.40
2018-02-03T23:09:58.581Z,81.80
2018-02-03T23:12:25.499Z,81.70
2018-02-03T23:14:52.375Z,81.70
2018-02-03T23:17:19.293Z,81.50
2018-02-03T23:19:46.228Z,81.70
2018-02-03T23:22:13.558Z,81.70
2018-02-03T23:24:40.425Z,81.60
2018-02-03T23:27:07.266Z,81.30
2018-02-03T23:29:34.216Z,81.50
2018-02-03T23:32:01.072Z,81.40
2018-02-03T23:34:28.016Z,81.10
2018-02-03T23:36:54.959Z,81.90
2018-02-03T23:39:26.412Z,82.00
2018-02-03T23:41:53.263Z,81.20
2018-02-03T23:44:20.196Z,81.60
2018-02-03T23:46:47.172Z,82.40
2018-02-03T23:49:14.020Z,82.70
2018-02-03T23:51:40.883Z,82.70
2018-02-03T23:54:07.788Z,82.50
2018-02-03T23:56:34.696Z,82.40
2018-02-03T23:59:01.568Z,82.40
